createdAt,value
2019-05-11T00:00:09.207Z,976.77
2019-05-11T00:01:09.172Z,976.77
2019-05-11T00:02:09.127Z,976.81
2019-05-11T00:03:09.091Z,976.80
2019-05-11T00:04:09.051Z,976.80
2019-05-11T00:05:09.010Z,976.81
2019-05-11T00:06:08.980Z,976.86
2019-05-11T00:07:08.939Z,976.86
2019-05-11T00:08:08.896Z,976.87
2019-05-11T00:09:08.861Z,976.83
2019-05-11T00:10:08.818Z,976.84
2019-05-11T00:11:08.780Z,976.79
2019-05-11T00:12:08.744Z,976.79
2019-05-11T00:13:08.712Z,976.75
2019-05-11T00:14:08.662Z,976.73
2019-05-11T00:15:08.625Z,976.73
2019-05-11T00:16:08.589Z,976.71
2019-05-11T00:17:08.546Z,976.71
2019-05-11T00:18:08.522Z,976.74
2019-05-11T00:19:08.474Z,976.71
2019-05-11T00:20:08.446Z,976.71
2019-05-11T00:21:08.397Z,976.71
2019-05-11T00:22:08.352Z,976.72
2019-05-11T00:23:08.315Z,976.70
2019-05-11T00:24:08.322Z,976.73
2019-05-11T00:25:08.237Z,976.71
2019-05-11T00:26:08.209Z,976.72
2019-05-11T00:27:08.167Z,976.71
2019-05-11T00:28:08.149Z,976.65
2019-05-11T00:29:08.084Z,976.64
2019-05-11T00:30:08.064Z,976.60
2019-05-11T00:31:08.008Z,976.59
2019-05-11T00:32:07.979Z,976.57
2019-05-11T00:33:07.935Z,976.58
2019-05-11T00:34:07.889Z,976.58
2019-05-11T00:35:07.868Z,976.55
2019-05-11T00:36:07.819Z,976.51
2019-05-11T00:37:07.774Z,976.50
2019-05-11T00:38:07.777Z,976.50
2019-05-11T00:39:07.701Z,976.49
2019-05-11T00:40:14.393Z,976.47
2019-05-11T00:41:07.626Z,976.45
2019-05-11T00:42:07.581Z,976.40
2019-05-11T00:43:07.541Z,976.41
2019-05-11T00:44:07.505Z,976.40
2019-05-11T00:45:07.481Z,976.37
2019-05-11T00:46:07.422Z,976.38
2019-05-11T00:47:07.384Z,976.33
2019-05-11T00:48:07.349Z,976.32
2019-05-11T00:49:07.310Z,976.30
2019-05-11T00:50:07.277Z,976.24
2019-05-11T00:51:07.233Z,976.26
2019-05-11T00:52:07.193Z,976.27
2019-05-11T00:53:07.158Z,976.22
2019-05-11T00:54:07.119Z,976.23
2019-05-11T00:55:07.073Z,976.22
2019-05-11T00:56:07.035Z,976.23
2019-05-11T00:57:07.008Z,976.20
2019-05-11T00:58:06.961Z,976.21
2019-05-11T00:59:20.983Z,976.17
2019-05-11T01:00:06.881Z,976.18
2019-05-11T01:01:06.840Z,976.14
2019-05-11T01:02:06.808Z,976.10
2019-05-11T01:03:06.764Z,976.10
2019-05-11T01:04:06.740Z,976.08
2019-05-11T01:05:06.714Z,976.07
2019-05-11T01:06:06.654Z,976.04
2019-05-11T01:07:06.630Z,976.06
2019-05-11T01:08:06.574Z,976.07
2019-05-11T01:09:06.538Z,976.10
2019-05-11T01:10:06.499Z,976.12
2019-05-11T01:11:06.453Z,976.10
2019-05-11T01:12:06.414Z,976.11
2019-05-11T01:13:06.379Z,976.10
2019-05-11T01:14:06.332Z,976.06
2019-05-11T01:15:06.297Z,976.06
2019-05-11T01:16:06.258Z,976.04
2019-05-11T01:17:06.221Z,975.98
2019-05-11T01:18:06.179Z,975.95
2019-05-11T01:19:06.137Z,975.92
2019-05-11T01:20:06.099Z,975.90
2019-05-11T01:21:06.058Z,975.95
2019-05-11T01:22:06.025Z,975.92
2019-05-11T01:23:05.983Z,975.92
2019-05-11T01:24:05.946Z,975.92
2019-05-11T01:25:05.907Z,975.89
2019-05-11T01:26:05.867Z,975.88
2019-05-11T01:27:05.825Z,975.88
2019-05-11T01:28:05.787Z,975.83
2019-05-11T01:29:05.746Z,975.79
2019-05-11T01:30:05.712Z,975.86
2019-05-11T01:31:05.676Z,975.86
2019-05-11T01:32:05.635Z,975.92
2019-05-11T01:33:05.593Z,975.94
2019-05-11T01:34:05.559Z,975.95
2019-05-11T01:35:05.520Z,975.94
2019-05-11T01:36:05.486Z,975.94
2019-05-11T01:37:05.441Z,975.93
2019-05-11T01:38:05.398Z,975.95
2019-05-11T01:39:05.358Z,975.97
2019-05-11T01:40:05.323Z,975.92
2019-05-11T01:41:05.279Z,975.92
2019-05-11T01:42:05.244Z,975.90
2019-05-11T01:43:05.208Z,975.86
2019-05-11T01:44:05.168Z,975.81
2019-05-11T01:45:05.136Z,975.81
2019-05-11T01:46:05.083Z,975.80
2019-05-11T01:47:05.047Z,975.81
2019-05-11T01:48:05.009Z,975.80
2019-05-11T01:49:04.972Z,975.83
2019-05-11T01:50:04.931Z,975.83
2019-05-11T01:51:04.890Z,975.84
2019-05-11T01:52:04.851Z,975.83
2019-05-11T01:53:04.815Z,975.90
2019-05-11T01:54:04.778Z,975.82
2019-05-11T01:55:04.738Z,975.80
2019-05-11T01:56:04.693Z,975.78
2019-05-11T01:57:04.657Z,975.80
2019-05-11T01:58:04.619Z,975.78
2019-05-11T01:59:04.583Z,975.74
2019-05-11T02:00:04.573Z,975.72
2019-05-11T02:01:04.506Z,975.72
2019-05-11T02:02:04.462Z,975.77
2019-05-11T02:03:04.562Z,975.75
2019-05-11T02:04:04.388Z,975.76
2019-05-11T02:05:04.349Z,975.81
2019-05-11T02:06:04.305Z,975.81
2019-05-11T02:07:04.266Z,975.78
2019-05-11T02:08:04.241Z,975.77
2019-05-11T02:09:04.266Z,975.79
2019-05-11T02:10:04.150Z,975.81
2019-05-11T02:11:15.333Z,975.80
2019-05-11T02:12:04.075Z,975.82
2019-05-11T02:13:04.035Z,975.80
2019-05-11T02:14:03.995Z,975.79
2019-05-11T02:15:03.953Z,975.78
2019-05-11T02:16:03.914Z,975.82
2019-05-11T02:17:03.879Z,975.82
2019-05-11T02:18:03.840Z,975.78
2019-05-11T02:19:03.802Z,975.79
2019-05-11T02:20:03.762Z,975.84
2019-05-11T02:21:03.724Z,975.80
2019-05-11T02:22:03.683Z,975.74
2019-05-11T02:23:03.649Z,975.78
2019-05-11T02:24:03.610Z,975.72
2019-05-11T02:25:03.574Z,975.70
2019-05-11T02:26:03.528Z,975.70
2019-05-11T02:27:03.486Z,975.62
2019-05-11T02:28:03.477Z,975.61
2019-05-11T02:29:03.409Z,975.60
2019-05-11T02:30:03.374Z,975.59
2019-05-11T02:31:03.335Z,975.58
2019-05-11T02:32:03.299Z,975.51
2019-05-11T02:33:03.260Z,975.53
2019-05-11T02:34:03.222Z,975.49
2019-05-11T02:35:03.177Z,975.47
2019-05-11T02:36:03.147Z,975.51
2019-05-11T02:37:03.102Z,975.46
2019-05-11T02:38:03.058Z,975.43
2019-05-11T02:39:03.017Z,975.43
2019-05-11T02:40:02.993Z,975.45
2019-05-11T02:41:02.942Z,975.43
2019-05-11T02:42:02.904Z,975.44
2019-05-11T02:43:02.871Z,975.48
2019-05-11T02:44:02.830Z,975.43
2019-05-11T02:45:02.789Z,975.47
2019-05-11T02:46:02.747Z,975.48
2019-05-11T02:47:02.727Z,975.46
2019-05-11T02:48:02.667Z,975.45
2019-05-11T02:49:02.630Z,975.46
2019-05-11T02:50:02.592Z,975.42
2019-05-11T02:51:02.555Z,975.45
2019-05-11T02:52:02.512Z,975.43
2019-05-11T02:53:02.471Z,975.43
2019-05-11T02:54:02.562Z,975.46
2019-05-11T02:55:02.397Z,975.46
2019-05-11T02:56:02.360Z,975.46
2019-05-11T02:57:02.315Z,975.42
2019-05-11T02:58:02.278Z,975.44
2019-05-11T02:59:02.233Z,975.38
2019-05-11T03:00:02.196Z,975.38
2019-05-11T03:01:02.159Z,975.39
2019-05-11T03:02:02.117Z,975.42
2019-05-11T03:03:02.081Z,975.41
2019-05-11T03:04:02.041Z,975.43
2019-05-11T03:05:02.086Z,975.48
2019-05-11T03:06:01.973Z,975.46
2019-05-11T03:07:01.917Z,975.49
2019-05-11T03:08:01.884Z,975.49
2019-05-11T03:09:01.848Z,975.47
2019-05-11T03:10:01.807Z,975.49
2019-05-11T03:11:01.870Z,975.45
2019-05-11T03:12:01.726Z,975.45
2019-05-11T03:13:01.686Z,975.41
2019-05-11T03:14:01.647Z,975.35
2019-05-11T03:15:01.612Z,975.32
2019-05-11T03:16:08.922Z,975.26
2019-05-11T03:18:15.150Z,975.18
2019-05-11T03:19:05.903Z,975.16
2019-05-11T03:20:05.869Z,975.15
2019-05-11T03:21:05.827Z,975.19
2019-05-11T03:22:05.787Z,975.16
2019-05-11T03:37:29.881Z,975.23
2019-05-11T03:38:29.821Z,975.23
2019-05-11T03:39:29.767Z,975.19
2019-05-11T03:40:29.739Z,975.15
2019-05-11T03:41:29.680Z,975.16
2019-05-11T03:42:29.638Z,975.15
2019-05-11T03:43:29.601Z,975.09
2019-05-11T03:44:29.558Z,975.08
2019-05-11T03:45:29.520Z,975.08
2019-05-11T03:46:29.470Z,975.11
2019-05-11T03:47:29.696Z,975.15
2019-05-11T03:48:29.393Z,975.11
2019-05-11T03:49:29.347Z,975.15
2019-05-11T03:50:29.309Z,975.18
2019-05-11T03:51:29.279Z,975.19
2019-05-11T03:52:29.224Z,975.21
2019-05-11T03:53:29.184Z,975.22
2019-05-11T03:54:29.141Z,975.19
2019-05-11T03:55:29.108Z,975.21
2019-05-11T03:56:29.077Z,975.24
2019-05-11T03:57:29.024Z,975.24
2019-05-11T03:58:28.994Z,975.28
2019-05-11T03:59:28.938Z,975.21
2019-05-11T04:00:28.904Z,975.21
2019-05-11T04:01:28.861Z,975.22
2019-05-11T04:02:28.824Z,975.22
2019-05-11T04:03:28.778Z,975.20
2019-05-11T04:04:28.742Z,975.21
2019-05-11T04:05:28.700Z,975.16
2019-05-11T04:06:28.659Z,975.14
2019-05-11T04:07:28.663Z,975.14
2019-05-11T04:08:28.584Z,975.12
2019-05-11T04:09:28.540Z,975.06
2019-05-11T04:10:28.500Z,975.04
2019-05-11T04:11:28.481Z,975.05
2019-05-11T04:12:34.874Z,975.07
2019-05-11T04:13:28.381Z,975.09
2019-05-11T04:14:28.338Z,975.07
2019-05-11T04:15:28.302Z,975.08
2019-05-11T04:16:28.260Z,975.08
2019-05-11T04:17:28.220Z,975.06
2019-05-11T04:18:28.180Z,975.04
2019-05-11T04:19:28.148Z,975.07
2019-05-11T04:20:28.102Z,975.08
2019-05-11T04:21:28.059Z,975.10
2019-05-11T04:22:28.023Z,975.14
2019-05-11T04:23:27.977Z,975.18
2019-05-11T04:24:27.938Z,975.23
2019-05-11T04:25:27.898Z,975.23
2019-05-11T04:26:27.854Z,975.25
2019-05-11T04:27:27.822Z,975.30
2019-05-11T04:28:27.785Z,975.27
2019-05-11T04:29:27.741Z,975.34
2019-05-11T04:30:27.701Z,975.30
2019-05-11T04:31:27.658Z,975.34
2019-05-11T04:32:27.619Z,975.35
2019-05-11T04:33:27.577Z,975.33
2019-05-11T04:34:27.548Z,975.33
2019-05-11T04:35:27.496Z,975.35
2019-05-11T04:36:27.459Z,975.35
2019-05-11T04:37:27.415Z,975.37
2019-05-11T04:38:27.376Z,975.33
2019-05-11T04:39:27.346Z,975.35
2019-05-11T04:40:27.300Z,975.36
2019-05-11T04:41:27.264Z,975.36
2019-05-11T04:42:27.222Z,975.34
2019-05-11T04:43:27.175Z,975.31
2019-05-11T04:44:27.139Z,975.38
2019-05-11T04:45:27.094Z,975.37
2019-05-11T04:46:27.056Z,975.34
2019-05-11T04:47:27.020Z,975.40
2019-05-11T04:48:26.979Z,975.40
2019-05-11T04:49:26.937Z,975.37
2019-05-11T04:50:26.895Z,975.36
2019-05-11T04:51:26.862Z,975.39
2019-05-11T04:52:26.820Z,975.45
2019-05-11T04:53:26.780Z,975.43
2019-05-11T04:54:26.740Z,975.46
2019-05-11T04:55:26.695Z,975.50
2019-05-11T04:56:26.665Z,975.48
2019-05-11T04:57:26.617Z,975.53
2019-05-11T04:58:26.576Z,975.54
2019-05-11T04:59:26.544Z,975.56
2019-05-11T05:00:26.522Z,975.54
2019-05-11T05:01:26.461Z,975.50
2019-05-11T05:02:27.320Z,975.51
2019-05-11T05:03:39.712Z,975.50
2019-05-11T05:04:26.338Z,975.50
2019-05-11T05:05:26.308Z,975.52
2019-05-11T05:06:26.267Z,975.53
2019-05-11T05:07:26.215Z,975.53
2019-05-11T05:08:26.804Z,975.51
2019-05-11T05:09:26.226Z,975.58
2019-05-11T05:10:26.097Z,975.51
2019-05-11T05:11:30.724Z,975.54
2019-05-11T05:12:26.019Z,975.52
2019-05-11T05:13:29.386Z,975.53
2019-05-11T05:14:25.946Z,975.53
2019-05-11T05:15:25.898Z,975.52
2019-05-11T05:16:25.858Z,975.52
2019-05-11T05:17:25.817Z,975.49
2019-05-11T05:18:25.785Z,975.55
2019-05-11T05:19:25.741Z,975.52
2019-05-11T05:20:25.702Z,975.52
2019-05-11T05:21:25.657Z,975.51
2019-05-11T05:22:27.968Z,975.53
2019-05-11T05:23:25.584Z,975.55
2019-05-11T05:24:25.540Z,975.56
2019-05-11T05:25:25.497Z,975.55
2019-05-11T05:26:25.463Z,975.60
2019-05-11T05:27:25.417Z,975.56
2019-05-11T05:28:25.379Z,975.60
2019-05-11T05:29:25.337Z,975.59
2019-05-11T05:30:25.298Z,975.62
2019-05-11T05:31:25.258Z,975.60
2019-05-11T05:32:25.227Z,975.58
2019-05-11T05:33:25.181Z,975.57
2019-05-11T05:34:25.145Z,975.56
2019-05-11T05:35:25.272Z,975.60
2019-05-11T05:36:25.057Z,975.57
2019-05-11T05:37:25.134Z,975.60
2019-05-11T05:38:24.998Z,975.61
2019-05-11T05:39:24.944Z,975.57
2019-05-11T05:40:24.896Z,975.58
2019-05-11T05:41:24.855Z,975.58
2019-05-11T05:42:24.815Z,975.55
2019-05-11T05:43:28.310Z,975.54
2019-05-11T05:44:27.674Z,975.54
2019-05-11T05:45:24.700Z,975.56
2019-05-11T05:46:24.658Z,975.56
2019-05-11T05:47:24.617Z,975.58
2019-05-11T05:48:24.579Z,975.57
2019-05-11T05:49:24.532Z,975.57
2019-05-11T05:50:24.494Z,975.53
2019-05-11T05:51:24.456Z,975.60
2019-05-11T05:52:24.420Z,975.56
2019-05-11T05:53:24.375Z,975.58
2019-05-11T05:54:24.348Z,975.56
2019-05-11T05:55:24.296Z,975.59
2019-05-11T05:56:24.261Z,975.59
2019-05-11T05:57:24.222Z,975.54
2019-05-11T05:58:24.185Z,975.57
2019-05-11T05:59:24.134Z,975.57
2019-05-11T06:00:24.096Z,975.58
2019-05-11T06:01:24.053Z,975.57
2019-05-11T06:02:24.031Z,975.61
2019-05-11T06:03:23.980Z,975.62
2019-05-11T06:04:23.938Z,975.67
2019-05-11T06:05:23.898Z,975.62
2019-05-11T06:06:23.854Z,975.66
2019-05-11T06:07:23.816Z,975.69
2019-05-11T06:08:23.788Z,975.71
2019-05-11T06:09:23.740Z,975.69
2019-05-11T06:10:23.711Z,975.75
2019-05-11T06:11:23.655Z,975.75
2019-05-11T06:12:23.613Z,975.73
2019-05-11T06:13:23.580Z,975.72
2019-05-11T06:14:23.539Z,975.74
2019-05-11T06:15:23.495Z,975.77
2019-05-11T06:16:23.459Z,975.74
2019-05-11T06:17:23.466Z,975.79
2019-05-11T06:18:23.375Z,975.80
2019-05-11T06:19:23.333Z,975.76
2019-05-11T06:20:23.291Z,975.77
2019-05-11T06:21:23.252Z,975.78
2019-05-11T06:22:23.213Z,975.73
2019-05-11T06:23:23.176Z,975.76
2019-05-11T06:24:23.137Z,975.74
2019-05-11T06:25:23.092Z,975.80
2019-05-11T06:26:23.052Z,975.78
2019-05-11T06:27:23.012Z,975.82
2019-05-11T06:28:23.008Z,975.80
2019-05-11T06:29:22.936Z,975.82
2019-05-11T06:30:22.892Z,975.80
2019-05-11T06:31:22.856Z,975.85
2019-05-11T06:32:22.814Z,975.86
2019-05-11T06:33:22.772Z,975.83
2019-05-11T06:34:22.734Z,975.86
2019-05-11T06:35:22.821Z,975.82
2019-05-11T06:36:22.655Z,975.82
2019-05-11T06:37:22.616Z,975.85
2019-05-11T06:38:22.571Z,975.84
2019-05-11T06:39:22.535Z,975.84
2019-05-11T06:40:22.488Z,975.81
2019-05-11T06:41:22.459Z,975.88
2019-05-11T06:42:22.410Z,975.91
2019-05-11T06:43:22.372Z,975.80
2019-05-11T06:44:22.327Z,975.86
2019-05-11T06:45:22.287Z,975.86
2019-05-11T06:46:22.253Z,975.82
2019-05-11T06:47:22.208Z,975.84
2019-05-11T06:48:22.176Z,975.86
2019-05-11T06:49:22.130Z,975.90
2019-05-11T06:50:22.090Z,975.86
2019-05-11T06:51:22.046Z,975.91
2019-05-11T06:52:22.009Z,975.82
2019-05-11T06:53:21.964Z,975.85
2019-05-11T06:54:21.928Z,975.84
2019-05-11T06:55:21.899Z,975.82
2019-05-11T06:56:21.853Z,975.88
2019-05-11T06:57:21.803Z,975.84
2019-05-11T06:58:21.761Z,975.89
2019-05-11T06:59:21.774Z,975.90
2019-05-11T07:00:21.690Z,975.91
2019-05-11T07:01:21.649Z,975.86
2019-05-11T07:02:21.624Z,975.87
2019-05-11T07:03:21.561Z,975.90
2019-05-11T07:04:21.520Z,975.95
2019-05-11T07:05:21.481Z,975.97
2019-05-11T07:06:21.440Z,975.94
2019-05-11T07:07:21.404Z,975.95
2019-05-11T07:08:21.364Z,975.90
2019-05-11T07:09:21.323Z,975.95
2019-05-11T07:10:21.281Z,975.91
2019-05-11T07:11:21.247Z,975.96
2019-05-11T07:12:21.243Z,975.95
2019-05-11T07:13:21.160Z,976.05
2019-05-11T07:14:21.536Z,976.03
2019-05-11T07:15:21.082Z,976.00
2019-05-11T07:16:21.033Z,976.03
2019-05-11T07:17:20.994Z,976.04
2019-05-11T07:18:20.955Z,976.07
2019-05-11T07:19:20.920Z,976.06
2019-05-11T07:20:20.882Z,976.13
2019-05-11T07:21:20.839Z,976.07
2019-05-11T07:22:20.796Z,976.05
2019-05-11T07:23:20.753Z,976.03
2019-05-11T07:24:20.713Z,976.09
2019-05-11T07:25:20.669Z,976.11
2019-05-11T07:26:20.634Z,976.07
2019-05-11T07:27:20.594Z,976.11
2019-05-11T07:28:20.557Z,976.21
2019-05-11T07:29:20.514Z,976.19
2019-05-11T07:30:20.470Z,976.25
2019-05-11T07:31:20.430Z,976.24
2019-05-11T07:32:25.014Z,976.23
2019-05-11T07:33:20.354Z,976.27
2019-05-11T07:34:20.311Z,976.29
2019-05-11T07:35:20.268Z,976.27
2019-05-11T07:36:20.227Z,976.32
2019-05-11T07:37:20.189Z,976.37
2019-05-11T07:38:20.148Z,976.35
2019-05-11T07:39:20.107Z,976.34
2019-05-11T07:40:20.073Z,976.35
2019-05-11T07:41:20.029Z,976.38
2019-05-11T07:42:19.987Z,976.47
2019-05-11T07:43:19.944Z,976.47
2019-05-11T07:44:33.947Z,976.46
2019-05-11T07:45:19.867Z,976.51
2019-05-11T07:46:19.824Z,976.50
2019-05-11T07:47:19.788Z,976.49
2019-05-11T07:48:19.739Z,976.55
2019-05-11T07:49:23.050Z,976.59
2019-05-11T07:50:19.659Z,976.57
2019-05-11T07:51:19.628Z,976.63
2019-05-11T07:52:19.584Z,976.63
2019-05-11T07:53:19.543Z,976.64
2019-05-11T07:54:19.500Z,976.64
2019-05-11T07:55:19.460Z,976.68
2019-05-11T07:56:19.418Z,976.75
2019-05-11T07:57:19.390Z,976.63
2019-05-11T07:58:20.214Z,976.65
2019-05-11T07:59:19.307Z,976.72
2019-05-11T08:00:28.676Z,976.67
2019-05-11T08:02:32.740Z,976.76
2019-05-11T08:03:25.255Z,976.80
2019-05-11T08:04:25.270Z,976.81
2019-05-11T08:05:24.530Z,976.75
2019-05-11T08:06:25.526Z,976.79
2019-05-11T08:09:37.857Z,976.80
2019-05-11T08:10:28.835Z,976.81
2019-05-11T08:11:30.763Z,976.81
2019-05-11T08:12:28.458Z,976.89
2019-05-11T08:13:28.258Z,976.88
2019-05-11T08:14:29.877Z,976.85
2019-05-11T08:15:28.384Z,976.87
2019-05-11T08:16:28.566Z,976.87
2019-05-11T08:17:28.615Z,976.89
2019-05-11T08:18:28.283Z,976.88
2019-05-11T08:19:28.257Z,976.94
2019-05-11T08:20:28.086Z,976.94
2019-05-11T08:21:28.868Z,976.96
2019-05-11T08:22:28.421Z,976.99
2019-05-11T08:23:28.585Z,977.00
2019-05-11T08:24:28.870Z,976.96
2019-05-11T08:25:28.667Z,977.01
2019-05-11T08:26:28.274Z,977.06
2019-05-11T08:27:28.538Z,977.09
2019-05-11T08:28:28.782Z,977.07
2019-05-11T08:29:27.810Z,977.11
2019-05-11T08:30:27.821Z,977.11
2019-05-11T08:31:27.880Z,977.17
2019-05-11T08:32:28.719Z,977.14
2019-05-11T08:33:28.351Z,977.19
2019-05-11T08:34:28.552Z,977.13
2019-05-11T08:35:30.914Z,977.14
2019-05-11T08:36:28.527Z,977.18
2019-05-11T08:37:28.393Z,977.20
2019-05-11T08:38:28.543Z,977.20
2019-05-11T08:39:28.664Z,977.19
2019-05-11T08:40:28.644Z,977.22
2019-05-11T08:41:28.017Z,977.22
2019-05-11T08:42:28.704Z,977.23
2019-05-11T08:43:28.345Z,977.26
2019-05-11T08:44:28.535Z,977.28
2019-05-11T08:45:27.959Z,977.30
2019-05-11T08:46:27.940Z,977.26
2019-05-11T08:47:28.233Z,977.32
2019-05-11T08:48:28.206Z,977.33
2019-05-11T08:49:28.451Z,977.35
2019-05-11T08:50:38.082Z,977.36
2019-05-11T08:52:30.590Z,977.41
2019-05-11T08:53:30.527Z,977.42
2019-05-11T08:54:30.488Z,977.46
2019-05-11T08:55:30.440Z,977.47
2019-05-11T08:56:30.402Z,977.49
2019-05-11T08:57:30.359Z,977.52
2019-05-11T08:58:30.319Z,977.50
2019-05-11T08:59:30.286Z,977.49
2019-05-11T09:00:30.244Z,977.52
2019-05-11T09:01:31.336Z,977.60
2019-05-11T09:02:30.204Z,977.57
2019-05-11T09:03:30.122Z,977.62
2019-05-11T09:04:30.083Z,977.62
2019-05-11T09:05:30.041Z,977.59
2019-05-11T09:06:30.005Z,977.66
2019-05-11T09:07:29.980Z,977.61
2019-05-11T09:08:29.930Z,977.70
2019-05-11T09:09:29.886Z,977.69
2019-05-11T09:12:29.763Z,977.74
2019-05-11T09:15:36.836Z,977.84
2019-05-11T09:16:29.613Z,977.85
2019-05-11T09:17:29.570Z,977.90
2019-05-11T09:18:29.527Z,977.89
2019-05-11T09:19:29.484Z,977.89
2019-05-11T09:20:29.445Z,977.90
2019-05-11T09:21:29.403Z,977.91
2019-05-11T09:22:29.362Z,977.97
2019-05-11T09:23:36.491Z,977.95
2019-05-11T09:25:29.271Z,978.05
2019-05-11T09:26:29.205Z,978.02
2019-05-11T09:27:29.166Z,978.05
2019-05-11T09:28:29.555Z,978.10
2019-05-11T09:29:29.091Z,978.08
2019-05-11T09:31:29.008Z,978.12
2019-05-11T09:32:28.975Z,978.04
2019-05-11T09:33:28.928Z,978.17
2019-05-11T09:34:29.046Z,978.18
2019-05-11T09:35:29.334Z,978.19
2019-05-11T09:36:28.875Z,978.20
2019-05-11T09:51:02.978Z,978.39
2019-05-11T09:52:02.823Z,978.40
2019-05-11T09:53:02.786Z,978.44
2019-05-11T09:54:02.960Z,978.46
2019-05-11T09:55:02.692Z,978.47
2019-05-11T09:56:02.650Z,978.48
2019-05-11T09:57:03.006Z,978.50
2019-05-11T09:58:03.427Z,978.47
2019-05-11T09:59:02.529Z,978.53
2019-05-11T10:00:02.484Z,978.57
2019-05-11T10:01:02.454Z,978.56
2019-05-11T10:02:02.396Z,978.56
2019-05-11T10:03:02.386Z,978.57
2019-05-11T10:04:02.327Z,978.60
2019-05-11T10:05:02.268Z,978.60
2019-05-11T10:06:02.240Z,978.58
2019-05-11T10:09:02.145Z,978.61
2019-05-11T10:10:02.080Z,978.68
2019-05-11T10:11:02.037Z,978.66
2019-05-11T10:12:01.993Z,978.63
2019-05-11T10:13:01.941Z,978.65
2019-05-11T10:14:01.904Z,978.70
2019-05-11T10:15:01.865Z,978.69
2019-05-11T10:16:07.203Z,978.75
2019-05-11T10:17:01.782Z,978.70
2019-05-11T10:18:01.744Z,978.75
2019-05-11T10:19:01.721Z,978.80
2019-05-11T10:20:02.098Z,978.81
2019-05-11T10:22:01.618Z,978.85
2019-05-11T10:23:01.557Z,978.85
2019-05-11T10:24:01.501Z,978.86
2019-05-11T10:25:01.486Z,978.88
2019-05-11T10:26:01.417Z,978.89
2019-05-11T10:27:01.377Z,978.91
2019-05-11T10:28:01.335Z,978.93
2019-05-11T10:29:01.302Z,978.98
2019-05-11T10:30:01.258Z,978.97
2019-05-11T10:31:01.227Z,978.99
2019-05-11T10:32:01.180Z,978.99
2019-05-11T10:33:01.139Z,979.01
2019-05-11T10:34:01.104Z,979.03
2019-05-11T10:35:01.073Z,979.06
2019-05-11T10:36:03.089Z,979.06
2019-05-11T10:37:00.972Z,979.06
2019-05-11T10:38:00.934Z,979.10
2019-05-11T10:39:00.909Z,979.13
2019-05-11T10:40:00.853Z,979.15
2019-05-11T10:41:00.822Z,979.13
2019-05-11T10:42:00.777Z,979.11
2019-05-11T10:43:00.744Z,979.13
2019-05-11T10:44:00.698Z,979.13
2019-05-11T10:45:00.656Z,979.15
2019-05-11T10:46:14.869Z,979.16
2019-05-11T10:47:00.578Z,979.13
2019-05-11T10:48:01.126Z,979.19
2019-05-11T10:49:00.492Z,979.24
2019-05-11T10:50:00.454Z,979.18
2019-05-11T10:51:00.412Z,979.20
2019-05-11T10:52:00.371Z,979.21
2019-05-11T10:53:00.344Z,979.21
2019-05-11T10:54:00.296Z,979.19
2019-05-11T10:55:00.255Z,979.21
2019-05-11T10:56:00.223Z,979.21
2019-05-11T10:57:00.178Z,979.25
2019-05-11T10:58:00.132Z,979.23
2019-05-11T10:59:00.095Z,979.27
2019-05-11T11:00:00.050Z,979.24
2019-05-11T11:01:00.016Z,979.30
2019-05-11T11:01:59.977Z,979.26
2019-05-11T11:02:59.935Z,979.26
2019-05-11T11:03:59.889Z,979.29
2019-05-11T11:04:59.856Z,979.27
2019-05-11T11:05:59.816Z,979.27
2019-05-11T11:06:59.775Z,979.24
2019-05-11T11:07:59.744Z,979.30
2019-05-11T11:09:00.433Z,979.32
2019-05-11T11:10:00.434Z,979.35
2019-05-11T11:11:08.602Z,979.45
2019-05-11T11:13:04.051Z,979.48
2019-05-11T11:14:04.531Z,979.50
2019-05-11T11:15:03.922Z,979.50
2019-05-11T11:16:03.873Z,979.62
2019-05-11T11:17:04.103Z,979.58
2019-05-11T11:18:03.791Z,979.59
2019-05-11T11:19:03.753Z,979.65
2019-05-11T11:20:03.714Z,979.61
2019-05-11T11:21:03.672Z,979.63
2019-05-11T11:22:29.350Z,979.68
2019-05-11T11:23:03.595Z,979.63
2019-05-11T11:24:03.556Z,979.70
2019-05-11T11:25:03.514Z,979.70
2019-05-11T11:26:03.562Z,979.74
2019-05-11T11:27:03.437Z,979.71
2019-05-11T11:28:03.390Z,979.75
2019-05-11T11:29:03.353Z,979.75
2019-05-11T11:30:03.314Z,979.74
2019-05-11T11:31:03.277Z,979.73
2019-05-11T11:32:03.238Z,979.77
2019-05-11T11:33:03.197Z,979.77
2019-05-11T11:34:03.182Z,979.78
2019-05-11T11:35:03.119Z,979.73
2019-05-11T11:36:03.075Z,979.77
2019-05-11T11:37:03.036Z,979.75
2019-05-11T11:38:04.547Z,979.77
2019-05-11T11:39:02.959Z,979.83
2019-05-11T11:40:02.924Z,979.75
2019-05-11T11:41:03.532Z,979.78
2019-05-11T11:42:02.843Z,979.74
2019-05-11T11:43:02.800Z,979.75
2019-05-11T11:44:02.767Z,979.79
2019-05-11T11:45:02.725Z,979.80
2019-05-11T11:46:02.684Z,979.77
2019-05-11T11:47:02.647Z,979.77
2019-05-11T11:48:02.603Z,979.87
2019-05-11T11:49:02.566Z,979.80
2019-05-11T11:50:03.034Z,979.82
2019-05-11T11:51:02.488Z,979.84
2019-05-11T11:52:04.061Z,979.85
2019-05-11T11:53:02.411Z,979.85
2019-05-11T11:54:02.375Z,979.84
2019-05-11T11:55:02.343Z,979.88
2019-05-11T11:56:02.289Z,979.91
2019-05-11T11:57:03.036Z,979.84
2019-05-11T11:58:02.220Z,979.91
2019-05-11T11:59:02.179Z,979.85
2019-05-11T12:00:02.136Z,979.89
2019-05-11T12:01:02.100Z,979.92
2019-05-11T12:02:02.063Z,979.95
2019-05-11T12:03:02.020Z,979.97
2019-05-11T12:04:01.987Z,979.99
2019-05-11T12:05:01.978Z,980.00
2019-05-11T12:06:01.907Z,980.05
2019-05-11T12:07:01.885Z,980.04
2019-05-11T12:08:01.826Z,980.09
2019-05-11T12:09:01.790Z,980.12
2019-05-11T12:10:01.752Z,980.16
2019-05-11T12:11:01.710Z,980.17
2019-05-11T12:12:01.674Z,980.17
2019-05-11T12:13:01.637Z,980.23
2019-05-11T12:14:01.596Z,980.22
2019-05-11T12:15:01.561Z,980.22
2019-05-11T12:16:01.526Z,980.26
2019-05-11T12:17:07.551Z,980.28
2019-05-11T12:18:01.447Z,980.28
2019-05-11T12:19:01.405Z,980.32
2019-05-11T12:20:01.359Z,980.35
2019-05-11T12:23:05.930Z,980.33
2019-05-11T12:24:07.888Z,980.37
2019-05-11T12:25:07.772Z,980.41
2019-05-11T12:26:05.586Z,980.44
2019-05-11T12:27:07.537Z,980.39
2019-05-11T12:28:07.774Z,980.40
2019-05-11T12:29:05.464Z,980.41
2019-05-11T12:30:05.452Z,980.40
2019-05-11T12:31:05.387Z,980.39
2019-05-11T12:32:05.351Z,980.41
2019-05-11T12:33:05.314Z,980.44
2019-05-11T12:34:05.267Z,980.46
2019-05-11T12:35:05.232Z,980.45
2019-05-11T12:36:07.716Z,980.49
2019-05-11T12:37:05.154Z,980.49
2019-05-11T12:38:05.116Z,980.47
2019-05-11T12:39:05.076Z,980.46
2019-05-11T12:40:05.034Z,980.48
2019-05-11T12:41:04.993Z,980.52
2019-05-11T12:42:04.958Z,980.53
2019-05-11T12:43:04.919Z,980.60
2019-05-11T12:44:04.883Z,980.60
2019-05-11T12:45:04.842Z,980.61
2019-05-11T12:46:04.806Z,980.61
2019-05-11T12:47:18.389Z,980.66
2019-05-11T12:48:04.724Z,980.69
2019-05-11T12:49:13.978Z,980.73
2019-05-11T12:50:58.922Z,980.76
2019-05-11T12:51:58.310Z,980.78
2019-05-11T12:52:58.813Z,980.76
2019-05-11T12:53:57.882Z,980.71
2019-05-11T12:55:08.530Z,980.77
2019-05-11T12:57:02.354Z,980.79
2019-05-11T12:58:02.190Z,980.78
2019-05-11T12:59:02.160Z,980.80
2019-05-11T13:00:02.440Z,980.74
2019-05-11T13:01:02.074Z,980.77
2019-05-11T13:02:02.045Z,980.80
2019-05-11T13:03:02.004Z,980.82
2019-05-11T13:04:01.958Z,980.87
2019-05-11T13:05:01.921Z,980.84
2019-05-11T13:06:01.886Z,980.82
2019-05-11T13:07:01.846Z,980.78
2019-05-11T13:08:01.808Z,980.80
2019-05-11T13:09:01.767Z,980.83
2019-05-11T13:10:01.726Z,980.84
2019-05-11T13:11:01.688Z,980.85
2019-05-11T13:12:01.649Z,980.86
2019-05-11T13:13:02.752Z,980.98
2019-05-11T13:14:01.575Z,980.97
2019-05-11T13:15:01.556Z,980.92